sensor_id;sensor_type;location;lat;lon;timestamp;pressure;altitude;pressure_sealevel;temperature;humidity
46506;BME280;32220;49.808;9.968;2024-01-11T10:44:47;100334.75;;;12.95;45.82
46506;BME280;32220;49.808;9.968;2024-01-11T10:47:42;100325.72;;;14.99;42.01
46506;BME280;32220;49.808;9.968;2024-01-11T10:50:35;100325.97;;;16.98;37.02
46506;BME280;32220;49.808;9.968;2024-01-11T10:53:42;100346.19;;;18.58;34.72
46506;BME280;32220;49.808;9.968;2024-01-11T10:56:12;100326.66;;;19.64;32.56
46506;BME280;32220;49.808;9.968;2024-01-11T10:58:44;100339.78;;;20.60;30.09
46506;BME280;32220;49.808;9.968;2024-01-11T11:12:12;100323.22;;;20.87;27.62
46506;BME280;32220;49.808;9.968;2024-01-11T11:15:03;100348.41;;;20.19;28.07
46506;BME280;32220;49.808;9.968;2024-01-11T11:17:32;100282.06;;;18.17;29.21
46506;BME280;32220;49.808;9.968;2024-01-11T11:20:34;100323.41;;;16.27;30.61
46506;BME280;32220;49.808;9.968;2024-01-11T11:23:36;100314.84;;;14.56;33.01
46506;BME280;32220;49.808;9.968;2024-01-11T11:26:37;100313.66;;;14.29;33.53
46506;BME280;32220;49.808;9.968;2024-01-11T11:29:26;100309.59;;;14.70;32.94
46506;BME280;32220;49.808;9.968;2024-01-11T11:32:56;100290.16;;;14.68;32.83
46506;BME280;32220;49.808;9.968;2024-01-11T11:35:24;100280.31;;;14.85;32.49
46506;BME280;32220;49.808;9.968;2024-01-11T11:38:18;100325.06;;;16.84;30.99
46506;BME280;32220;49.808;9.968;2024-01-11T11:41:08;100300.44;;;17.46;29.40
46506;BME280;32220;49.808;9.968;2024-01-11T11:43:36;100335.69;;;17.92;29.54
46506;BME280;32220;49.808;9.968;2024-01-11T11:49:03;100277.19;;;15.08;31.54
46506;BME280;32220;49.808;9.968;2024-01-11T11:51:39;100318.47;;;14.38;31.91
46506;BME280;32220;49.808;9.968;2024-01-11T11:54:09;100319.06;;;13.94;31.10
46506;BME280;32220;49.808;9.968;2024-01-11T11:56:57;100270.06;;;13.81;32.08
46506;BME280;32220;49.808;9.968;2024-01-11T11:59:45;100315.75;;;16.35;30.22
46506;BME280;32220;49.808;9.968;2024-01-11T12:02:17;100307.78;;;18.33;28.80
46506;BME280;32220;49.808;9.968;2024-01-11T12:04:48;100271.47;;;18.03;28.22
46506;BME280;32220;49.808;9.968;2024-01-11T12:07:25;100296.97;;;18.09;27.84
46506;BME280;32220;49.808;9.968;2024-01-11T12:10:13;100294.00;;;18.75;27.36
46506;BME280;32220;49.808;9.968;2024-01-11T12:38:09;100316.03;;;25.38;21.80
46506;BME280;32220;49.808;9.968;2024-01-11T12:40:38;100297.84;;;25.92;21.50
46506;BME280;32220;49.808;9.968;2024-01-11T12:43:19;100307.66;;;26.36;20.67
46506;BME280;32220;49.808;9.968;2024-01-11T12:45:47;100296.34;;;26.91;20.23
46506;BME280;32220;49.808;9.968;2024-01-11T12:48:35;100288.78;;;27.35;18.58
46506;BME280;32220;49.808;9.968;2024-01-11T12:51:10;100291.53;;;27.76;18.61
46506;BME280;32220;49.808;9.968;2024-01-11T12:53:41;100263.81;;;27.80;18.66
46506;BME280;32220;49.808;9.968;2024-01-11T12:56:21;100309.38;;;27.54;18.99
46506;BME280;32220;49.808;9.968;2024-01-11T12:58:49;100313.09;;;26.70;18.52
46506;BME280;32220;49.808;9.968;2024-01-11T13:01:17;100295.41;;;26.06;19.59
46506;BME280;32220;49.808;9.968;2024-01-11T13:04:03;100280.91;;;25.72;19.58
46506;BME280;32220;49.808;9.968;2024-01-11T13:06:51;100251.97;;;25.19;19.96
46506;BME280;32220;49.808;9.968;2024-01-11T13:09:21;100259.47;;;24.35;20.93
46506;BME280;32220;49.808;9.968;2024-01-11T13:11:49;100273.00;;;24.35;20.42
46506;BME280;32220;49.808;9.968;2024-01-11T13:14:17;100246.09;;;23.77;20.62
46506;BME280;32220;49.808;9.968;2024-01-11T13:17:14;100245.00;;;23.12;20.09
46506;BME280;32220;49.808;9.968;2024-01-11T13:19:43;100267.81;;;22.20;20.95
46506;BME280;32220;49.808;9.968;2024-01-11T13:22:23;100260.13;;;20.01;22.57
46506;BME280;32220;49.808;9.968;2024-01-11T13:24:53;100228.38;;;18.30;23.88
46506;BME280;32220;49.808;9.968;2024-01-11T13:27:28;100245.69;;;16.98;24.55
46506;BME280;32220;49.808;9.968;2024-01-11T13:29:55;100237.13;;;15.68;25.26
46506;BME280;32220;49.808;9.968;2024-01-11T13:32:24;100237.84;;;14.66;26.55
46506;BME280;32220;49.808;9.968;2024-01-11T13:34:52;100228.91;;;13.71;27.11
46506;BME280;32220;49.808;9.968;2024-01-11T13:37:35;100180.72;;;12.56;28.22
46506;BME280;32220;49.808;9.968;2024-01-11T13:40:19;100207.56;;;11.96;28.96
46506;BME280;32220;49.808;9.968;2024-01-11T13:42:51;100217.94;;;11.42;29.90
46506;BME280;32220;49.808;9.968;2024-01-11T13:45:18;100201.94;;;10.83;30.40
46506;BME280;32220;49.808;9.968;2024-01-11T13:47:46;100168.41;;;10.18;31.02
46506;BME280;32220;49.808;9.968;2024-01-11T13:50:21;100163.19;;;9.71;31.63
46506;BME280;32220;49.808;9.968;2024-01-11T14:03:28;100201.09;;;8.17;34.59
46506;BME280;32220;49.808;9.968;2024-01-11T14:05:55;100215.88;;;7.94;35.17
46506;BME280;32220;49.808;9.968;2024-01-11T14:08:24;100145.63;;;7.33;35.30
46506;BME280;32220;49.808;9.968;2024-01-11T14:11:11;100165.44;;;7.17;35.47
46506;BME280;32220;49.808;9.968;2024-01-11T14:13:38;100147.84;;;6.85;36.07
46506;BME280;32220;49.808;9.968;2024-01-11T14:16:06;100164.91;;;6.70;35.99
46506;BME280;32220;49.808;9.968;2024-01-11T14:18:35;100165.41;;;6.52;36.25
46506;BME280;32220;49.808;9.968;2024-01-11T14:21:03;100141.63;;;6.20;36.63
46506;BME280;32220;49.808;9.968;2024-01-11T14:24:14;100189.59;;;6.31;37.68
46506;BME280;32220;49.808;9.968;2024-01-11T14:26:42;100177.78;;;6.11;38.25
46506;BME280;32220;49.808;9.968;2024-01-11T14:29:12;100176.31;;;6.00;37.84
46506;BME280;32220;49.808;9.968;2024-01-11T14:32:00;100185.50;;;5.79;38.27
46506;BME280;32220;49.808;9.968;2024-01-11T14:34:31;100152.88;;;5.48;38.08
46506;BME280;32220;49.808;9.968;2024-01-11T14:37:00;100199.97;;;5.57;38.20
46506;BME280;32220;49.808;9.968;2024-01-11T14:39:45;100166.56;;;5.22;38.22
46506;BME280;32220;49.808;9.968;2024-01-11T14:42:12;100169.38;;;5.11;38.92
46506;BME280;32220;49.808;9.968;2024-01-11T14:44:42;100187.78;;;5.11;39.01
46506;BME280;32220;49.808;9.968;2024-01-11T14:50:39;100165.72;;;4.74;39.83
46506;BME280;32220;49.808;9.968;2024-01-11T14:53:07;100176.31;;;4.69;39.87
46506;BME280;32220;49.808;9.968;2024-01-11T14:55:48;100171.28;;;4.57;40.34
46506;BME280;32220;49.808;9.968;2024-01-11T14:58:56;100105.03;;;3.93;40.46
46506;BME280;32220;49.808;9.968;2024-01-11T15:04:57;100160.72;;;4.08;41.40
46506;BME280;32220;49.808;9.968;2024-01-11T15:07:27;100143.56;;;3.85;41.77
46506;BME280;32220;49.808;9.968;2024-01-11T15:09:58;100129.88;;;3.68;41.65
46506;BME280;32220;49.808;9.968;2024-01-11T15:12:46;100128.31;;;3.53;42.19
46506;BME280;32220;49.808;9.968;2024-01-11T15:15:14;100147.50;;;3.54;41.77
46506;BME280;32220;49.808;9.968;2024-01-11T15:18:01;100125.91;;;3.37;42.38
46506;BME280;32220;49.808;9.968;2024-01-11T15:20:29;100152.94;;;3.39;42.68
46506;BME280;32220;49.808;9.968;2024-01-11T15:22:58;100162.69;;;3.29;43.06
46506;BME280;32220;49.808;9.968;2024-01-11T15:28:39;100146.41;;;3.01;43.21
46506;BME280;32220;49.808;9.968;2024-01-11T15:31:47;100101.47;;;2.67;43.52
46506;BME280;32220;49.808;9.968;2024-01-11T15:34:22;100123.25;;;2.69;43.59
46506;BME280;32220;49.808;9.968;2024-01-11T15:36:51;100073.19;;;2.20;44.33
46506;BME280;32220;49.808;9.968;2024-01-11T15:39:34;100140.03;;;2.45;44.18
46506;BME280;32220;49.808;9.968;2024-01-11T15:42:23;100145.28;;;2.41;45.87
46506;BME280;32220;49.808;9.968;2024-01-11T15:45:31;100082.91;;;2.03;45.48
46506;BME280;32220;49.808;9.968;2024-01-11T15:48:12;100133.31;;;2.17;45.40
46506;BME280;32220;49.808;9.968;2024-01-11T15:50:41;100126.47;;;2.01;45.09
46506;BME280;32220;49.808;9.968;2024-01-11T15:53:29;100089.25;;;1.70;45.14
46506;BME280;32220;49.808;9.968;2024-01-11T15:59:11;100164.03;;;1.85;45.19
46506;BME280;32220;49.808;9.968;2024-01-11T16:01:59;100165.81;;;1.78;45.89
46506;BME280;32220;49.808;9.968;2024-01-11T16:04:48;100174.56;;;1.68;45.53
46506;BME280;32220;49.808;9.968;2024-01-11T16:13:30;100177.31;;;1.42;46.53
